Time;durP1;ratioP1;P1;durP2;ratioP2;P2;SDS_P1;SDS_P2;PMS_P1;PMS_P2;Temp;Humidity;BMP_temperature;BMP_pressure;BME280_temperature;BME280_humidity;BME280_pressure;Samples;Min_cycle;Max_cycle;Signal;HPM_P1;HPM_P2
2023/11/25 00:00:06;;;;;;;1.13;0.97;;;5.60;99.90;;;;;;5045459;28;20236;-71
2023/11/25 00:02:38;;;;;;;3.63;1.23;;;5.60;99.90;;;;;;5064147;28;20638;-72
2023/11/25 00:05:05;;;;;;;1.57;1.30;;;5.60;99.90;;;;;;5047105;28;20205;-72
2023/11/25 00:07:33;;;;;;;0.97;0.97;;;5.60;99.90;;;;;;5052954;28;20212;-74
2023/11/25 00:10:04;;;;;;;1.90;1.17;;;5.60;99.90;;;;;;5047083;28;20190;-68
2023/11/25 00:12:32;;;;;;;1.07;0.97;;;5.60;99.90;;;;;;5044904;28;20241;-68
2023/11/25 00:15:00;;;;;;;2.57;0.90;;;5.60;99.90;;;;;;5053333;28;20251;-66
2023/11/25 00:17:28;;;;;;;2.23;1.00;;;5.60;99.90;;;;;;5047088;28;20251;-68
2023/11/25 00:19:56;;;;;;;1.03;0.83;;;5.60;99.90;;;;;;5045766;28;20194;-67
2023/11/25 00:22:23;;;;;;;0.60;0.60;;;5.60;99.90;;;;;;5046298;28;20219;-67
2023/11/25 00:24:50;;;;;;;0.70;0.70;;;5.60;99.90;;;;;;5049624;28;20681;-68
2023/11/25 00:27:18;;;;;;;1.73;1.00;;;5.60;99.90;;;;;;5050463;28;20281;-69
2023/11/25 00:29:47;;;;;;;1.50;1.10;;;5.60;99.90;;;;;;5051497;28;20191;-72
2023/11/25 00:32:15;;;;;;;1.27;0.90;;;5.60;99.90;;;;;;5042780;28;20215;-70
2023/11/25 00:34:43;;;;;;;1.10;1.00;;;5.60;99.90;;;;;;5058266;28;20204;-69
2023/11/25 00:37:10;;;;;;;1.53;1.17;;;5.60;99.90;;;;;;5049028;28;20651;-70
2023/11/25 00:39:38;;;;;;;1.50;0.93;;;5.70;99.90;;;;;;5046295;28;20269;-71
2023/11/25 00:42:06;;;;;;;2.33;1.20;;;5.60;99.90;;;;;;5054176;28;20266;-71
2023/11/25 00:44:33;;;;;;;0.93;0.83;;;5.60;99.90;;;;;;5055307;28;20224;-70
2023/11/25 00:47:05;;;;;;;0.93;0.70;;;5.60;99.90;;;;;;5043432;28;20659;-71
2023/11/25 00:49:36;;;;;;;1.00;0.90;;;5.60;99.90;;;;;;5044849;28;20227;-71
2023/11/25 00:52:03;;;;;;;0.67;0.67;;;5.60;99.90;;;;;;5050902;28;20212;-70
2023/11/25 00:54:30;;;;;;;0.80;0.60;;;5.50;99.90;;;;;;5047255;28;20203;-70
2023/11/25 00:56:58;;;;;;;0.53;0.53;;;5.50;99.90;;;;;;5049880;28;20690;-69
2023/11/25 00:59:26;;;;;;;1.40;0.80;;;5.60;99.90;;;;;;5053544;28;20196;-70
2023/11/25 01:01:53;;;;;;;0.63;0.63;;;5.60;99.90;;;;;;5060163;28;20556;-70
2023/11/25 01:04:22;;;;;;;0.80;0.80;;;5.50;99.90;;;;;;5057097;28;20211;-71
2023/11/25 01:06:49;;;;;;;0.87;0.70;;;5.50;99.90;;;;;;5045593;28;20280;-71
2023/11/25 01:09:18;;;;;;;0.60;0.60;;;5.50;99.90;;;;;;5082743;28;20215;-68
2023/11/25 01:11:45;;;;;;;0.87;0.70;;;5.50;99.90;;;;;;5062623;28;20237;-70
2023/11/25 01:14:13;;;;;;;0.53;0.53;;;5.50;99.90;;;;;;5046102;28;20205;-71
2023/11/25 01:16:40;;;;;;;0.50;0.50;;;5.50;99.90;;;;;;5051151;28;20223;-70
2023/11/25 01:19:07;;;;;;;0.40;0.40;;;5.50;99.90;;;;;;5048511;28;20191;-69
2023/11/25 01:21:35;;;;;;;0.47;0.47;;;5.50;99.90;;;;;;5052783;28;20204;-70
2023/11/25 01:24:05;;;;;;;0.50;0.50;;;5.40;99.90;;;;;;5052966;28;20201;-71
2023/11/25 01:26:32;;;;;;;0.50;0.40;;;5.40;99.90;;;;;;5053668;28;20272;-72
2023/11/25 01:28:59;;;;;;;0.60;0.60;;;5.40;99.90;;;;;;5048350;28;20699;-71
2023/11/25 01:31:26;;;;;;;0.70;0.70;;;5.40;99.90;;;;;;5053860;28;20229;-71
2023/11/25 01:33:53;;;;;;;1.13;0.60;;;5.40;99.90;;;;;;5051609;28;20205;-71
2023/11/25 01:36:21;;;;;;;0.80;0.80;;;5.50;99.90;;;;;;5050476;28;20193;-70
2023/11/25 01:38:50;;;;;;;0.70;0.70;;;5.50;99.90;;;;;;5068621;28;20273;-71
2023/11/25 01:41:17;;;;;;;1.00;0.80;;;5.50;99.90;;;;;;5051131;28;20660;-71
2023/11/25 01:43:44;;;;;;;0.60;0.60;;;5.50;99.90;;;;;;5048378;28;20196;-69
2023/11/25 01:46:14;;;;;;;0.80;0.80;;;5.50;99.90;;;;;;5063105;28;20203;-67
2023/11/25 01:48:45;;;;;;;1.43;0.70;;;5.60;99.90;;;;;;5058170;28;20310;-68
2023/11/25 01:51:12;;;;;;;0.60;0.60;;;5.50;99.90;;;;;;5054325;28;20189;-68
2023/11/25 01:53:40;;;;;;;0.60;0.60;;;5.50;99.90;;;;;;5057862;28;20224;-66
2023/11/25 01:56:09;;;;;;;0.43;0.43;;;5.50;99.90;;;;;;5053545;28;20206;-66
2023/11/25 01:58:39;;;;;;;0.83;0.50;;;5.50;99.90;;;;;;5059640;28;20203;-66
2023/11/25 02:01:06;;;;;;;0.87;0.70;;;5.40;99.90;;;;;;5068262;28;20218;-67
2023/11/25 02:03:33;;;;;;;0.63;0.50;;;5.40;99.90;;;;;;5049465;28;20199;-67
2023/11/25 02:06:00;;;;;;;1.43;0.60;;;5.40;99.90;;;;;;5063609;28;20553;-66
2023/11/25 02:08:28;;;;;;;1.07;0.50;;;5.40;99.90;;;;;;5058923;28;20207;-67
2023/11/25 02:10:57;;;;;;;0.40;0.40;;;5.40;99.90;;;;;;5058038;28;20219;-67
2023/11/25 02:13:25;;;;;;;0.40;0.40;;;5.40;99.90;;;;;;5065628;28;20247;-67
2023/11/25 02:15:52;;;;;;;0.70;0.50;;;5.30;99.90;;;;;;5053501;28;20652;-69
2023/11/25 02:18:19;;;;;;;0.57;0.50;;;5.30;99.90;;;;;;5046045;28;20630;-69
2023/11/25 02:20:46;;;;;;;0.30;0.30;;;5.30;99.90;;;;;;5068603;28;20671;-69
2023/11/25 02:23:20;;;;;;;0.57;0.57;;;5.30;99.90;;;;;;5062924;28;20207;-70
2023/11/25 02:25:47;;;;;;;0.93;0.60;;;5.30;99.90;;;;;;5049677;28;20205;-69
2023/11/25 02:28:15;;;;;;;0.40;0.40;;;5.30;99.90;;;;;;5057052;28;20333;-69
2023/11/25 02:30:42;;;;;;;0.43;0.40;;;5.40;99.90;;;;;;5053120;28;20620;-69
2023/11/25 02:33:09;;;;;;;0.60;0.60;;;5.30;99.90;;;;;;5048070;28;20226;-69
2023/11/25 02:35:36;;;;;;;0.40;0.40;;;5.30;99.90;;;;;;5053108;28;20202;-68
2023/11/25 02:38:04;;;;;;;0.77;0.60;;;5.30;99.90;;;;;;5052152;28;20689;-69
2023/11/25 02:40:33;;;;;;;0.60;0.57;;;5.30;99.90;;;;;;5052513;28;20207;-70
2023/11/25 02:43:00;;;;;;;0.60;0.50;;;5.20;99.90;;;;;;5065761;28;20187;-69
2023/11/25 02:45:28;;;;;;;0.50;0.50;;;5.20;99.90;;;;;;5050953;28;20574;-69
2023/11/25 02:47:55;;;;;;;0.50;0.40;;;5.20;99.90;;;;;;5061468;28;20280;-69
2023/11/25 02:50:22;;;;;;;0.47;0.47;;;5.20;99.90;;;;;;5059617;28;20200;-69
2023/11/25 02:52:49;;;;;;;1.10;0.43;;;5.20;99.90;;;;;;5051252;28;20310;-69
2023/11/25 02:55:16;;;;;;;0.50;0.50;;;5.20;99.90;;;;;;5058528;28;20222;-69
2023/11/25 02:57:46;;;;;;;0.40;0.40;;;5.10;99.90;;;;;;5059428;28;20295;-69
2023/11/25 03:00:27;;;;;;;1.27;0.40;;;5.10;99.90;;;;;;5048518;28;20253;-70
2023/11/25 03:03:04;;;;;;;0.60;0.40;;;5.20;99.90;;;;;;5060530;28;20772;-69
2023/11/25 03:05:32;;;;;;;0.33;0.33;;;5.20;99.90;;;;;;5058545;28;20196;-70
2023/11/25 03:08:00;;;;;;;0.60;0.50;;;5.20;99.90;;;;;;5046953;28;20357;-70
2023/11/25 03:10:27;;;;;;;0.50;0.50;;;5.30;99.90;;;;;;5066508;28;20211;-70
2023/11/25 03:12:56;;;;;;;0.93;0.40;;;5.30;99.90;;;;;;5053487;28;20280;-70
2023/11/25 03:15:23;;;;;;;0.40;0.30;;;5.20;99.90;;;;;;5050293;28;20615;-70
2023/11/25 03:17:51;;;;;;;0.40;0.30;;;5.20;99.90;;;;;;5054721;28;20212;-69
2023/11/25 03:20:18;;;;;;;0.40;0.40;;;5.20;99.90;;;;;;5048377;28;20728;-69
2023/11/25 03:22:45;;;;;;;0.20;0.20;;;5.10;99.90;;;;;;5050219;28;20211;-70
2023/11/25 03:25:14;;;;;;;0.30;0.30;;;5.10;99.90;;;;;;5049804;28;20274;-69
2023/11/25 03:27:41;;;;;;;0.37;0.37;;;5.10;99.90;;;;;;5046364;28;20203;-69
2023/11/25 03:30:11;;;;;;;0.33;0.33;;;5.10;99.90;;;;;;5052352;28;20717;-69
2023/11/25 03:32:38;;;;;;;0.20;0.20;;;5.10;99.90;;;;;;5054099;28;20210;-70
2023/11/25 03:35:06;;;;;;;1.80;0.30;;;5.10;99.90;;;;;;5039316;28;20225;-71
2023/11/25 03:37:33;;;;;;;0.33;0.33;;;5.10;99.90;;;;;;5064902;28;20200;-71
2023/11/25 03:40:00;;;;;;;0.30;0.30;;;5.10;99.90;;;;;;5064597;28;20210;-70
2023/11/25 03:42:28;;;;;;;0.43;0.43;;;5.10;99.90;;;;;;5047687;28;20268;-70
2023/11/25 03:44:55;;;;;;;0.33;0.33;;;5.20;99.90;;;;;;5053805;28;20578;-69
2023/11/25 03:47:23;;;;;;;0.40;0.40;;;5.20;99.90;;;;;;5059162;28;20202;-69
2023/11/25 03:49:51;;;;;;;0.40;0.40;;;5.20;99.90;;;;;;5049147;28;20244;-70
2023/11/25 03:52:19;;;;;;;0.30;0.30;;;5.20;99.90;;;;;;5063081;28;20204;-70
2023/11/25 03:54:46;;;;;;;0.50;0.50;;;5.20;99.90;;;;;;5056289;28;20693;-70
2023/11/25 03:57:13;;;;;;;0.57;0.30;;;5.20;99.90;;;;;;5054093;28;20205;-69
2023/11/25 03:59:42;;;;;;;0.30;0.30;;;5.20;99.90;;;;;;5064146;28;20205;-69
2023/11/25 04:02:09;;;;;;;0.23;0.23;;;5.20;99.90;;;;;;5062987;28;20211;-70
2023/11/25 04:04:38;;;;;;;0.73;0.30;;;5.20;99.90;;;;;;5047123;28;20204;-70
2023/11/25 04:07:05;;;;;;;0.20;0.20;;;5.20;99.90;;;;;;5056077;28;20223;-70
2023/11/25 04:09:32;;;;;;;0.20;0.20;;;5.10;99.90;;;;;;5052723;28;20651;-69
2023/11/25 04:12:00;;;;;;;0.20;0.20;;;5.10;99.90;;;;;;5055064;28;20604;-68
2023/11/25 04:14:27;;;;;;;0.30;0.30;;;5.10;99.90;;;;;;5055791;28;20211;-68
2023/11/25 04:16:56;;;;;;;0.20;0.20;;;5.20;99.90;;;;;;5049182;28;20208;-68
2023/11/25 04:19:23;;;;;;;0.77;0.43;;;5.20;99.90;;;;;;5048268;28;20207;-68
2023/11/25 04:21:51;;;;;;;0.30;0.30;;;5.20;99.90;;;;;;5054653;28;20214;-68
2023/11/25 04:24:19;;;;;;;0.30;0.30;;;5.20;99.90;;;;;;5047829;28;20643;-68
2023/11/25 04:26:47;;;;;;;0.47;0.47;;;5.30;99.90;;;;;;5054893;28;20206;-67
2023/11/25 04:29:14;;;;;;;0.30;0.30;;;5.30;99.90;;;;;;5061555;28;20203;-68
2023/11/25 04:31:41;;;;;;;0.40;0.40;;;5.30;99.90;;;;;;5049400;28;20211;-67
2023/11/25 04:34:08;;;;;;;0.30;0.30;;;5.30;99.90;;;;;;5055087;28;20266;-69
2023/11/25 04:36:35;;;;;;;0.40;0.40;;;5.40;99.90;;;;;;5066290;28;20613;-70
2023/11/25 04:39:05;;;;;;;0.73;0.40;;;5.40;99.90;;;;;;5056820;28;20296;-70
2023/11/25 04:41:32;;;;;;;0.30;0.30;;;5.30;99.90;;;;;;5069969;28;20217;-70
2023/11/25 04:43:59;;;;;;;0.50;0.50;;;5.30;99.90;;;;;;5063471;28;20201;-71
2023/11/25 04:46:26;;;;;;;0.63;0.60;;;5.30;99.90;;;;;;5052991;28;20200;-69
2023/11/25 04:48:54;;;;;;;0.53;0.40;;;5.30;99.90;;;;;;5068039;28;20228;-69
2023/11/25 04:51:24;;;;;;;0.90;0.50;;;5.30;99.90;;;;;;5061435;28;20201;-69
2023/11/25 04:53:51;;;;;;;0.30;0.30;;;5.30;99.90;;;;;;5062161;28;20222;-69
2023/11/25 04:56:20;;;;;;;0.83;0.60;;;5.30;99.90;;;;;;5065874;28;20508;-69
2023/11/25 04:58:47;;;;;;;0.50;0.50;;;5.30;99.90;;;;;;5040729;28;20231;-69
2023/11/25 05:01:14;;;;;;;0.50;0.40;;;5.30;99.90;;;;;;5057368;28;20201;-69
2023/11/25 05:03:41;;;;;;;0.50;0.50;;;5.30;99.90;;;;;;5055738;28;20187;-69
2023/11/25 05:06:10;;;;;;;1.40;0.40;;;5.20;99.90;;;;;;5046675;28;20216;-69
2023/11/25 05:08:37;;;;;;;0.80;0.37;;;5.20;99.90;;;;;;5055739;28;20242;-69
2023/11/25 05:11:05;;;;;;;0.80;0.50;;;5.20;99.90;;;;;;5068203;28;20786;-69
2023/11/25 05:13:34;;;;;;;0.43;0.43;;;5.20;99.90;;;;;;5049572;28;20214;-69
2023/11/25 05:16:01;;;;;;;0.70;0.60;;;5.30;99.90;;;;;;5051580;28;20223;-69
2023/11/25 05:18:28;;;;;;;0.40;0.40;;;5.30;99.90;;;;;;5054383;28;20199;-69
2023/11/25 05:20:55;;;;;;;0.40;0.40;;;5.30;99.90;;;;;;5052499;28;20206;-69
2023/11/25 05:23:22;;;;;;;0.43;0.30;;;5.30;99.90;;;;;;5062062;28;20590;-69
2023/11/25 05:25:49;;;;;;;0.20;0.20;;;5.30;99.90;;;;;;5054037;28;20206;-69
2023/11/25 05:28:16;;;;;;;0.80;0.40;;;5.20;99.90;;;;;;5056816;28;20570;-69
2023/11/25 05:30:45;;;;;;;0.87;0.50;;;5.30;99.90;;;;;;5058484;28;20197;-72
2023/11/25 05:33:12;;;;;;;0.43;0.43;;;5.30;99.90;;;;;;5054100;28;20210;-70
2023/11/25 05:35:39;;;;;;;0.77;0.53;;;5.30;99.90;;;;;;5057492;28;20235;-70
2023/11/25 05:38:08;;;;;;;0.50;0.50;;;5.30;99.90;;;;;;5061454;28;20574;-70
2023/11/25 05:40:36;;;;;;;1.77;0.60;;;5.30;99.90;;;;;;5048475;28;20579;-70
2023/11/25 05:43:03;;;;;;;0.40;0.40;;;5.30;99.90;;;;;;5062488;28;20203;-70
2023/11/25 05:45:30;;;;;;;2.57;0.33;;;5.30;99.90;;;;;;5059589;28;20673;-71
2023/11/25 05:47:59;;;;;;;0.50;0.40;;;5.30;99.90;;;;;;5055165;28;20235;-68
2023/11/25 05:50:27;;;;;;;0.53;0.53;;;5.30;99.90;;;;;;5069648;28;20295;-68
2023/11/25 05:52:56;;;;;;;0.50;0.50;;;5.20;99.90;;;;;;5062778;28;20200;-68
2023/11/25 05:55:23;;;;;;;0.30;0.30;;;5.20;99.90;;;;;;5056477;28;20199;-68
2023/11/25 05:57:52;;;;;;;0.50;0.50;;;5.20;99.90;;;;;;5071790;28;20229;-68
2023/11/25 06:00:19;;;;;;;0.50;0.50;;;5.20;99.90;;;;;;5063466;28;20195;-69
2023/11/25 06:02:46;;;;;;;1.00;0.73;;;5.20;99.90;;;;;;5053161;28;20199;-69
2023/11/25 06:05:15;;;;;;;0.40;0.40;;;5.20;99.90;;;;;;5056356;28;20654;-69
2023/11/25 06:07:42;;;;;;;1.70;0.60;;;5.20;99.90;;;;;;5053907;28;20366;-68
2023/11/25 06:10:10;;;;;;;0.40;0.40;;;5.30;99.90;;;;;;5059106;28;20635;-70
2023/11/25 06:12:38;;;;;;;0.43;0.43;;;5.30;99.90;;;;;;5070630;28;20233;-70
2023/11/25 06:15:06;;;;;;;0.60;0.60;;;5.30;99.90;;;;;;5053207;28;20331;-71
2023/11/25 06:17:33;;;;;;;1.07;0.67;;;5.30;99.90;;;;;;5056236;28;20257;-73
2023/11/25 06:20:00;;;;;;;0.40;0.40;;;5.30;99.90;;;;;;5060129;28;20570;-74
2023/11/25 06:22:28;;;;;;;0.40;0.40;;;5.30;99.90;;;;;;5055973;28;20270;-74
2023/11/25 06:24:57;;;;;;;0.60;0.60;;;5.30;99.90;;;;;;5056524;28;20192;-74
2023/11/25 06:27:25;;;;;;;1.80;0.60;;;5.30;99.90;;;;;;5057292;28;20201;-74
2023/11/25 06:29:52;;;;;;;0.50;0.50;;;5.20;99.90;;;;;;5047753;28;20273;-74
2023/11/25 06:32:19;;;;;;;2.40;0.83;;;5.20;99.90;;;;;;5057775;28;20295;-73
2023/11/25 06:34:46;;;;;;;0.70;0.57;;;5.20;99.90;;;;;;5058068;28;20211;-74
2023/11/25 06:37:14;;;;;;;0.57;0.57;;;5.20;99.90;;;;;;5056780;28;20204;-74
2023/11/25 06:39:42;;;;;;;1.00;0.63;;;5.20;99.90;;;;;;5058084;28;20202;-74
2023/11/25 06:42:09;;;;;;;0.97;0.97;;;5.20;99.90;;;;;;5052678;28;20199;-74
2023/11/25 06:44:36;;;;;;;0.80;0.67;;;5.10;99.90;;;;;;5055153;28;20846;-74
2023/11/25 06:47:05;;;;;;;0.60;0.50;;;5.10;99.90;;;;;;5053741;28;20652;-74
2023/11/25 06:49:32;;;;;;;1.13;0.50;;;5.30;99.90;;;;;;5045549;28;20226;-74
2023/11/25 06:51:59;;;;;;;0.60;0.57;;;5.20;99.90;;;;;;5046252;28;20586;-72
2023/11/25 06:54:31;;;;;;;0.50;0.50;;;5.20;99.90;;;;;;5051433;28;20679;-72
2023/11/25 06:56:59;;;;;;;0.80;0.80;;;5.20;99.90;;;;;;5047722;28;20199;-73
2023/11/25 06:59:26;;;;;;;0.60;0.60;;;5.20;99.90;;;;;;5056255;28;20283;-73
2023/11/25 07:01:55;;;;;;;1.10;0.80;;;5.20;99.90;;;;;;5047273;28;20672;-73
2023/11/25 07:04:22;;;;;;;0.70;0.70;;;5.30;99.90;;;;;;5051846;28;20190;-73
2023/11/25 07:06:50;;;;;;;1.03;0.60;;;5.30;99.90;;;;;;5062013;28;20211;-74
2023/11/25 07:09:18;;;;;;;0.50;0.50;;;5.30;99.90;;;;;;5061450;28;20569;-72
2023/11/25 07:11:48;;;;;;;1.43;0.90;;;5.30;99.90;;;;;;5053243;28;20206;-71
2023/11/25 07:14:18;;;;;;;2.97;0.90;;;5.30;99.90;;;;;;5059092;28;20297;-74
2023/11/25 07:16:46;;;;;;;1.10;1.00;;;5.30;99.90;;;;;;5054250;28;20196;-72
2023/11/25 07:19:13;;;;;;;1.03;1.00;;;5.30;99.90;;;;;;5037651;28;20286;-74
2023/11/25 07:21:40;;;;;;;2.43;0.67;;;5.30;99.90;;;;;;5051941;28;20743;-74
2023/11/25 07:24:08;;;;;;;0.53;0.53;;;5.20;99.90;;;;;;5047603;28;20269;-72
2023/11/25 07:26:41;;;;;;;0.80;0.80;;;5.20;99.90;;;;;;5058561;28;20247;-74
2023/11/25 07:29:10;;;;;;;0.60;0.60;;;5.20;99.90;;;;;;5066049;28;20244;-73
2023/11/25 07:31:39;;;;;;;1.80;0.70;;;5.20;99.90;;;;;;5048557;28;20673;-73
2023/11/25 07:34:06;;;;;;;1.30;0.77;;;5.20;99.90;;;;;;5067260;28;20642;-74
2023/11/25 07:36:33;;;;;;;0.90;0.80;;;5.30;99.90;;;;;;5057839;28;20205;-73
2023/11/25 07:39:01;;;;;;;0.80;0.60;;;5.30;99.90;;;;;;5053125;28;20199;-74
2023/11/25 07:41:28;;;;;;;1.17;0.70;;;5.30;99.90;;;;;;5052610;28;20242;-74
2023/11/25 07:43:56;;;;;;;1.33;0.70;;;5.30;99.90;;;;;;5053185;28;20192;-74
2023/11/25 07:46:23;;;;;;;1.43;0.70;;;5.30;99.90;;;;;;5058223;28;20210;-72
2023/11/25 07:48:52;;;;;;;1.20;0.93;;;5.30;99.90;;;;;;5064764;28;20687;-72
2023/11/25 07:51:19;;;;;;;0.90;0.90;;;5.30;99.90;;;;;;5047041;28;20255;-74
2023/11/25 07:53:46;;;;;;;1.77;0.87;;;5.30;99.90;;;;;;5053670;28;20217;-74
2023/11/25 07:56:13;;;;;;;0.90;0.90;;;5.30;99.90;;;;;;5049879;28;20203;-74
2023/11/25 07:58:40;;;;;;;0.80;0.80;;;5.30;99.90;;;;;;5051698;28;20212;-74
2023/11/25 08:01:07;;;;;;;1.20;1.00;;;5.30;99.90;;;;;;5053656;28;20200;-74
2023/11/25 08:03:35;;;;;;;0.83;0.80;;;5.30;99.90;;;;;;5051961;28;20203;-74
2023/11/25 08:06:05;;;;;;;0.70;0.70;;;5.30;99.90;;;;;;5047313;28;20194;-74
2023/11/25 08:08:32;;;;;;;0.67;0.67;;;5.20;99.90;;;;;;5064528;28;20256;-74
2023/11/25 08:10:59;;;;;;;0.57;0.57;;;5.20;99.90;;;;;;5065585;28;20211;-73
2023/11/25 08:13:26;;;;;;;1.17;0.70;;;5.20;99.90;;;;;;5052328;28;20277;-73
2023/11/25 08:15:55;;;;;;;0.83;0.63;;;5.20;99.90;;;;;;5059883;28;20276;-72
2023/11/25 08:18:23;;;;;;;0.87;0.87;;;5.20;99.90;;;;;;5050089;28;20199;-73
2023/11/25 08:20:50;;;;;;;0.83;0.80;;;5.30;99.90;;;;;;5048108;28;20210;-74
2023/11/25 08:23:20;;;;;;;1.80;0.73;;;5.40;99.90;;;;;;5055945;28;20253;-73
2023/11/25 08:25:48;;;;;;;0.50;0.50;;;5.30;99.90;;;;;;5046206;28;20199;-73
2023/11/25 08:28:15;;;;;;;0.70;0.70;;;5.30;99.90;;;;;;5052730;28;20222;-72
2023/11/25 08:30:42;;;;;;;1.53;1.00;;;5.40;99.90;;;;;;5051562;28;20240;-72
2023/11/25 08:33:09;;;;;;;1.93;0.90;;;5.40;99.90;;;;;;5048467;28;20272;-72
2023/11/25 08:35:38;;;;;;;0.60;0.60;;;5.60;99.90;;;;;;5049645;28;20320;-70
2023/11/25 08:38:05;;;;;;;0.60;0.60;;;5.70;99.90;;;;;;5061706;28;20202;-70
2023/11/25 08:40:34;;;;;;;0.97;0.80;;;5.80;99.90;;;;;;5044487;28;20651;-70
2023/11/25 08:43:08;;;;;;;0.60;0.60;;;5.90;99.90;;;;;;5047097;28;20243;-70
2023/11/25 08:45:35;;;;;;;1.07;0.97;;;5.90;99.90;;;;;;5056531;28;20305;-69
2023/11/25 08:48:02;;;;;;;2.77;1.00;;;5.90;99.90;;;;;;5043663;28;20289;-70
2023/11/25 08:50:29;;;;;;;1.13;1.00;;;5.90;99.90;;;;;;5048558;28;20189;-70
2023/11/25 08:52:56;;;;;;;1.07;1.00;;;6.00;99.90;;;;;;5080278;28;20293;-69
2023/11/25 08:55:24;;;;;;;0.90;0.80;;;5.90;99.90;;;;;;5045818;28;20215;-70
2023/11/25 08:57:53;;;;;;;0.73;0.70;;;5.90;99.90;;;;;;5059674;28;20200;-70
2023/11/25 09:00:20;;;;;;;1.87;1.13;;;5.90;99.90;;;;;;5044137;28;20636;-70
2023/11/25 09:02:51;;;;;;;1.03;0.83;;;5.90;99.90;;;;;;5045592;28;20214;-70
2023/11/25 09:05:21;;;;;;;0.80;0.80;;;5.90;99.90;;;;;;5047700;28;20204;-69
2023/11/25 09:07:50;;;;;;;1.53;0.90;;;5.90;99.90;;;;;;5051225;28;20277;-70
2023/11/25 09:10:17;;;;;;;3.37;1.00;;;5.90;99.90;;;;;;5054863;28;20227;-69
2023/11/25 09:12:45;;;;;;;0.93;0.87;;;6.10;99.90;;;;;;5054455;28;20200;-70
2023/11/25 09:15:14;;;;;;;0.80;0.80;;;6.30;99.90;;;;;;5049899;28;20611;-70
2023/11/25 09:17:41;;;;;;;0.80;0.80;;;6.60;99.90;;;;;;5082603;28;20561;-70
2023/11/25 09:20:11;;;;;;;4.50;1.00;;;6.90;99.90;;;;;;5057437;28;20201;-70
2023/11/25 09:22:39;;;;;;;1.50;0.87;;;7.10;99.90;;;;;;5049462;28;20289;-70
2023/11/25 09:25:09;;;;;;;1.67;1.17;;;7.20;99.90;;;;;;5055227;28;20599;-70
2023/11/25 09:27:37;;;;;;;1.07;1.00;;;7.10;99.90;;;;;;5048737;28;20293;-70
2023/11/25 09:30:05;;;;;;;1.80;0.93;;;7.00;99.90;;;;;;5056399;28;20293;-68
2023/11/25 09:32:34;;;;;;;1.90;1.00;;;7.00;99.90;;;;;;5062015;28;20197;-70
2023/11/25 09:35:01;;;;;;;1.00;1.00;;;6.90;99.90;;;;;;5051761;28;20198;-70
2023/11/25 09:37:28;;;;;;;1.77;1.23;;;6.90;99.90;;;;;;5058169;28;20203;-70
2023/11/25 09:39:55;;;;;;;1.90;1.53;;;6.90;99.90;;;;;;5058448;28;20650;-70
2023/11/25 09:42:22;;;;;;;1.10;1.00;;;6.90;99.90;;;;;;5045272;28;20698;-70
2023/11/25 09:44:50;;;;;;;3.30;1.20;;;7.20;99.90;;;;;;5049612;28;20190;-70
2023/11/25 09:47:17;;;;;;;1.47;1.17;;;7.50;99.90;;;;;;5057778;28;20562;-70
2023/11/25 09:49:48;;;;;;;1.73;1.13;;;7.60;99.90;;;;;;5078436;28;20221;-70
2023/11/25 09:52:19;;;;;;;1.43;1.00;;;7.80;99.90;;;;;;5055098;28;20193;-70
2023/11/25 09:54:47;;;;;;;1.03;0.70;;;7.80;99.90;;;;;;5048682;28;20217;-70
2023/11/25 09:57:18;;;;;;;1.23;1.00;;;7.90;99.90;;;;;;5052728;28;20806;-70
2023/11/25 09:59:45;;;;;;;1.77;0.90;;;8.10;99.90;;;;;;5055260;28;20214;-70
2023/11/25 10:02:13;;;;;;;1.40;1.10;;;8.60;99.90;;;;;;5052352;28;20389;-69
2023/11/25 10:04:41;;;;;;;3.30;1.00;;;9.20;99.90;;;;;;5057175;28;20290;-69
2023/11/25 10:07:10;;;;;;;1.87;1.07;;;9.60;99.90;;;;;;5057005;28;20190;-70
2023/11/25 10:09:38;;;;;;;0.83;0.83;;;9.80;99.90;;;;;;5048018;28;20203;-70
2023/11/25 10:12:07;;;;;;;1.00;0.93;;;9.80;99.90;;;;;;5052606;28;20272;-70
2023/11/25 10:14:34;;;;;;;1.67;1.43;;;9.60;99.90;;;;;;5057187;28;20217;-70
2023/11/25 10:17:16;;;;;;;2.23;1.30;;;9.30;99.90;;;;;;5045379;28;20223;-70
2023/11/25 10:19:44;;;;;;;2.60;1.30;;;9.10;99.90;;;;;;5053049;28;20265;-70
2023/11/25 10:22:12;;;;;;;1.10;1.00;;;9.30;99.90;;;;;;5052112;28;20220;-69
2023/11/25 10:24:47;;;;;;;1.87;1.20;;;9.10;99.90;;;;;;5042804;28;20256;-69
2023/11/25 10:27:14;;;;;;;1.20;1.10;;;9.10;99.90;;;;;;5054344;28;20209;-70
2023/11/25 10:29:42;;;;;;;2.70;1.07;;;9.00;99.90;;;;;;5053330;28;20305;-70
2023/11/25 10:32:09;;;;;;;2.53;1.20;;;8.80;99.90;;;;;;5052513;28;20191;-70
2023/11/25 10:34:37;;;;;;;1.53;1.10;;;8.70;99.90;;;;;;5051691;28;20241;-69
2023/11/25 10:37:05;;;;;;;1.30;1.20;;;8.60;99.90;;;;;;5048008;28;20648;-69
2023/11/25 10:39:37;;;;;;;1.03;1.00;;;8.40;99.90;;;;;;5050448;28;20220;-70
2023/11/25 10:42:07;;;;;;;2.03;1.50;;;8.30;99.90;;;;;;5049894;28;20549;-69
2023/11/25 10:44:35;;;;;;;1.30;1.00;;;8.20;99.90;;;;;;5042553;28;20590;-69
2023/11/25 10:47:04;;;;;;;1.40;1.10;;;8.10;99.90;;;;;;5050981;28;20254;-69
2023/11/25 10:49:33;;;;;;;1.33;1.10;;;8.10;99.90;;;;;;5051755;28;20232;-69
2023/11/25 10:52:05;;;;;;;1.73;1.27;;;8.00;99.90;;;;;;5050135;28;20203;-69
2023/11/25 10:54:35;;;;;;;0.87;0.87;;;8.00;99.90;;;;;;5054839;28;20213;-69
2023/11/25 10:57:05;;;;;;;1.00;1.00;;;8.10;99.90;;;;;;5043404;28;20194;-70
2023/11/25 10:59:34;;;;;;;1.50;1.00;;;8.10;99.90;;;;;;5079779;28;20284;-70
2023/11/25 11:02:06;;;;;;;1.87;1.47;;;8.20;99.90;;;;;;5056604;28;20277;-69
2023/11/25 11:04:37;;;;;;;1.83;1.17;;;8.10;99.90;;;;;;5045835;28;20227;-69
2023/11/25 11:07:05;;;;;;;1.63;1.20;;;8.00;99.90;;;;;;5048354;28;20631;-69
2023/11/25 11:09:36;;;;;;;1.87;1.27;;;7.90;99.90;;;;;;5058752;28;20260;-69
2023/11/25 11:12:08;;;;;;;2.83;1.33;;;7.80;99.90;;;;;;5045310;28;20202;-69
2023/11/25 11:14:41;;;;;;;1.33;1.23;;;7.80;99.90;;;;;;5057017;28;20205;-69
2023/11/25 11:17:14;;;;;;;2.13;1.13;;;7.70;99.90;;;;;;5052866;28;20270;-68
2023/11/25 11:19:42;;;;;;;1.37;1.20;;;7.70;99.90;;;;;;5045388;28;20189;-69
2023/11/25 11:22:12;;;;;;;1.20;1.10;;;7.60;99.90;;;;;;5086020;28;20237;-69
2023/11/25 11:25:02;;;;;;;4.57;1.63;;;7.60;99.90;;;;;;5051318;28;20909;-69
2023/11/25 11:27:36;;;;;;;1.33;1.13;;;7.50;99.90;;;;;;5052596;28;20216;-69
2023/11/25 11:30:11;;;;;;;1.90;1.07;;;7.40;99.90;;;;;;5051828;28;20699;-69
2023/11/25 11:32:40;;;;;;;2.03;1.40;;;7.40;99.90;;;;;;5045973;28;20563;-70
2023/11/25 11:35:09;;;;;;;1.30;1.20;;;7.30;99.90;;;;;;5047382;28;20300;-69
2023/11/25 11:37:39;;;;;;;1.40;1.30;;;7.30;99.90;;;;;;5054124;28;20204;-69
2023/11/25 11:40:09;;;;;;;1.70;1.10;;;7.30;99.90;;;;;;5056074;28;20201;-70
2023/11/25 11:42:39;;;;;;;1.30;1.20;;;7.20;99.90;;;;;;5051179;28;20687;-69
2023/11/25 11:45:21;;;;;;;1.50;1.40;;;7.20;99.90;;;;;;5044278;28;20193;-69
2023/11/25 11:47:52;;;;;;;1.37;1.23;;;7.20;99.90;;;;;;5062289;28;20229;-69
2023/11/25 11:50:21;;;;;;;2.03;1.40;;;7.10;99.90;;;;;;5050244;28;20189;-69
2023/11/25 11:52:50;;;;;;;1.43;1.20;;;7.10;99.90;;;;;;5045175;28;20213;-69
2023/11/25 11:55:49;;;;;;;1.50;1.30;;;7.10;99.90;;;;;;5050605;28;20676;-69
2023/11/25 11:58:19;;;;;;;1.30;1.20;;;7.10;99.90;;;;;;5038431;28;20731;-69
2023/11/25 12:00:47;;;;;;;1.43;1.03;;;7.00;99.90;;;;;;5045765;28;20622;-69
2023/11/25 12:03:15;;;;;;;1.17;1.07;;;7.10;99.90;;;;;;5056569;28;20548;-69
2023/11/25 12:05:42;;;;;;;1.30;1.00;;;7.10;99.90;;;;;;5057680;28;20213;-68
2023/11/25 12:08:10;;;;;;;1.83;1.37;;;7.20;99.90;;;;;;5048906;28;20206;-68
2023/11/25 12:10:38;;;;;;;2.30;1.50;;;7.30;99.90;;;;;;5057774;28;20254;-69
2023/11/25 12:13:05;;;;;;;1.67;1.20;;;7.30;99.80;;;;;;5052645;28;20186;-68
2023/11/25 12:15:34;;;;;;;1.57;1.47;;;7.40;99.40;;;;;;5052178;28;20288;-69
2023/11/25 12:18:02;;;;;;;1.40;1.30;;;7.40;99.40;;;;;;5060094;28;20201;-69
2023/11/25 12:20:31;;;;;;;1.20;1.10;;;7.30;99.30;;;;;;5048461;28;20201;-70
2023/11/25 12:23:00;;;;;;;1.87;1.60;;;7.30;99.30;;;;;;5082299;28;20319;-69
2023/11/25 12:25:32;;;;;;;1.70;1.10;;;7.30;99.20;;;;;;5059457;28;20678;-69
2023/11/25 12:28:06;;;;;;;2.37;1.33;;;7.20;99.10;;;;;;5047155;28;20597;-69
2023/11/25 12:30:35;;;;;;;1.83;1.40;;;7.20;99.00;;;;;;5061385;28;20185;-69
2023/11/25 12:33:03;;;;;;;1.93;1.30;;;7.10;99.00;;;;;;5057643;28;20205;-69
2023/11/25 12:35:30;;;;;;;1.40;1.30;;;7.20;99.00;;;;;;5045987;28;20205;-69
2023/11/25 12:37:57;;;;;;;1.93;1.30;;;7.20;98.60;;;;;;5058613;28;20193;-69
2023/11/25 12:40:25;;;;;;;2.33;1.50;;;7.30;98.40;;;;;;5045112;28;20205;-69
2023/11/25 12:42:53;;;;;;;1.30;1.20;;;7.40;97.80;;;;;;5052366;28;20188;-69
2023/11/25 12:45:31;;;;;;;1.17;1.10;;;7.40;97.90;;;;;;5052003;28;20205;-68
2023/11/25 12:48:01;;;;;;;1.50;1.40;;;7.40;97.50;;;;;;5071837;28;20226;-69
2023/11/25 12:50:30;;;;;;;1.50;1.40;;;7.40;96.80;;;;;;5047764;28;20569;-69
2023/11/25 12:53:08;;;;;;;1.90;1.57;;;7.30;96.90;;;;;;5055343;28;20300;-68
2023/11/25 12:55:39;;;;;;;1.40;1.30;;;7.20;96.70;;;;;;5043684;28;20218;-69
2023/11/25 12:58:11;;;;;;;1.00;0.90;;;7.20;96.70;;;;;;5048126;28;20201;-69
2023/11/25 13:00:45;;;;;;;1.23;1.10;;;7.20;96.70;;;;;;5047653;28;20200;-69
2023/11/25 13:03:21;;;;;;;1.80;1.50;;;7.10;96.50;;;;;;5048570;28;20220;-69